createdAt,value
2019-01-05T00:00:40.560Z,1.89
2019-01-05T00:03:30.662Z,1.88
2019-01-05T00:09:00.646Z,1.88
2019-01-05T00:12:09.902Z,1.88
2019-01-05T00:15:00.164Z,1.86
2019-01-05T00:18:10.972Z,1.84
2019-01-05T00:21:21.861Z,1.84
2019-01-05T00:34:59.245Z,1.88
2019-01-05T00:38:11.686Z,1.85
2019-01-05T00:41:24.093Z,1.86
2019-01-05T00:44:14.259Z,1.89
2019-01-05T00:50:35.599Z,1.93
2019-01-05T01:00:32.433Z,1.96
2019-01-05T01:03:44.834Z,1.97
2019-01-05T01:06:34.922Z,1.96
2019-01-05T01:09:45.714Z,1.95
2019-01-05T01:12:35.824Z,1.99
2019-01-05T01:15:27.603Z,1.99
2019-01-05T01:18:38.492Z,2.01
2019-01-05T01:38:31.825Z,1.94
2019-01-05T01:41:44.238Z,1.91
2019-01-05T01:44:53.575Z,1.88
2019-01-05T01:48:04.407Z,1.87
2019-01-05T01:51:15.255Z,1.85
2019-01-05T01:54:26.076Z,1.80
2019-01-05T01:57:56.060Z,1.74
2019-01-05T02:01:06.900Z,1.70
2019-01-05T02:04:17.706Z,1.71
2019-01-05T02:07:30.145Z,1.71
2019-01-05T02:10:40.993Z,1.70
2019-01-05T02:13:51.806Z,1.70
2019-01-05T02:17:02.608Z,1.67
2019-01-05T02:20:13.457Z,1.63
2019-01-05T02:23:42.071Z,1.65
2019-01-05T02:27:10.675Z,1.62
2019-01-05T02:30:39.297Z,1.65
2019-01-05T02:33:50.159Z,1.68
2019-01-05T02:37:01.009Z,1.70
2019-01-05T02:44:09.152Z,1.72
2019-01-05T02:47:37.852Z,1.73
2019-01-05T02:50:49.008Z,1.75
2019-01-05T02:54:17.614Z,1.78
2019-01-05T02:57:46.229Z,1.84
2019-01-05T03:01:14.885Z,1.87
2019-01-05T03:04:26.011Z,1.88
2019-01-05T03:07:37.198Z,1.85
2019-01-05T03:10:47.982Z,1.86
2019-01-05T03:13:58.797Z,1.86
2019-01-05T03:21:06.892Z,1.88
2019-01-05T03:32:12.818Z,1.95
2019-01-05T03:35:23.655Z,1.91
2019-01-05T03:38:34.805Z,1.90
2019-01-05T03:41:45.904Z,1.89
2019-01-05T03:44:57.039Z,1.85
2019-01-05T03:48:25.706Z,1.82
2019-01-05T03:51:54.342Z,1.83
2019-01-05T03:55:05.263Z,1.81
2019-01-05T03:58:16.133Z,1.82
2019-01-05T04:01:27.282Z,1.81
2019-01-05T04:04:55.941Z,1.79
2019-01-05T04:08:07.084Z,1.73
2019-01-05T04:11:35.708Z,1.69
2019-01-05T04:15:04.360Z,1.64
2019-01-05T04:18:15.507Z,1.57
2019-01-05T04:22:03.343Z,1.59
2019-01-05T04:25:14.163Z,1.61
2019-01-05T04:28:24.975Z,1.57
2019-01-05T04:35:33.318Z,1.52
2019-01-05T04:39:01.959Z,1.37
2019-01-05T04:42:30.585Z,1.25
2019-01-05T04:45:41.456Z,1.09
2019-01-05T04:52:50.044Z,1.02
2019-01-05T04:56:20.037Z,0.98
2019-01-05T04:59:48.682Z,0.88
2019-01-05T05:02:59.525Z,0.79
2019-01-05T05:06:10.479Z,0.76
2019-01-05T05:09:39.089Z,0.70
2019-01-05T05:13:07.711Z,0.67
2019-01-05T05:25:28.574Z,0.65
2019-01-05T05:28:57.190Z,0.67
2019-01-05T05:32:25.820Z,0.67
2019-01-05T05:35:36.721Z,0.69
2019-01-05T05:38:47.568Z,0.68
2019-01-05T05:45:52.453Z,0.63
2019-01-05T05:49:21.051Z,0.61
2019-01-05T05:52:31.848Z,0.62
2019-01-05T05:55:42.702Z,0.64
2019-01-05T05:59:11.299Z,0.64
2019-01-05T06:02:39.937Z,0.68
2019-01-05T06:06:09.451Z,0.64
2019-01-05T06:09:38.059Z,0.63
2019-01-05T06:12:48.920Z,0.66
2019-01-05T06:16:17.514Z,0.65
2019-01-05T06:19:28.635Z,0.65
2019-01-05T06:22:57.252Z,0.59
2019-01-05T06:26:25.857Z,0.59
2019-01-05T06:33:34.559Z,0.56
2019-01-05T06:47:35.443Z,0.64
2019-01-05T06:50:46.307Z,0.76
2019-01-05T06:54:34.059Z,0.78
2019-01-05T07:01:54.832Z,0.81
2019-01-05T07:05:23.505Z,0.77
2019-01-05T07:08:34.634Z,0.79
2019-01-05T07:12:03.241Z,0.82
2019-01-05T07:15:14.336Z,0.87
2019-01-05T07:18:25.210Z,0.86
2019-01-05T07:21:36.354Z,0.92
2019-01-05T07:25:04.971Z,0.96
2019-01-05T07:32:31.042Z,0.99
2019-01-05T07:35:41.877Z,1.09
2019-01-05T07:39:10.563Z,1.08
2019-01-05T07:42:39.095Z,1.12
2019-01-05T07:46:07.786Z,1.15
2019-01-05T07:49:36.409Z,1.22
2019-01-05T07:56:35.128Z,1.38
2019-01-05T08:00:03.758Z,1.42
2019-01-05T08:03:14.605Z,1.43
2019-01-05T08:06:44.551Z,1.47
2019-01-05T08:09:55.781Z,1.51
2019-01-05T08:13:24.382Z,1.54
2019-01-05T08:24:47.490Z,1.60
2019-01-05T08:31:56.039Z,1.61
2019-01-05T08:35:24.620Z,1.60
2019-01-05T08:38:35.428Z,1.59
2019-01-05T08:41:46.348Z,1.56
2019-01-05T08:48:49.210Z,1.58
2019-01-05T08:52:00.322Z,1.53
2019-01-05T08:59:03.441Z,1.62
2019-01-05T09:02:51.108Z,1.65
2019-01-05T09:09:18.912Z,1.69
2019-01-05T09:12:22.782Z,1.71
2019-01-05T09:15:33.940Z,1.78
2019-01-05T09:18:45.084Z,1.74
2019-01-05T09:21:55.973Z,1.77
2019-01-05T09:25:07.085Z,1.77
2019-01-05T09:28:35.722Z,1.80
2019-01-05T09:31:46.595Z,1.81
2019-01-05T09:35:15.244Z,1.82
2019-01-05T09:38:43.873Z,1.81
2019-01-05T09:42:12.474Z,1.83
2019-01-05T09:45:41.162Z,1.91
2019-01-05T09:48:52.040Z,1.97
2019-01-05T09:52:20.677Z,1.95
2019-01-05T09:55:49.380Z,2.00
2019-01-05T09:59:17.964Z,2.00
2019-01-05T10:02:46.625Z,2.04
2019-01-05T10:05:57.800Z,2.04
2019-01-05T10:09:08.658Z,2.04
2019-01-05T10:12:19.543Z,2.07
2019-01-05T10:15:30.685Z,2.10
2019-01-05T10:18:41.815Z,2.11
2019-01-05T10:21:52.727Z,2.10
2019-01-05T10:25:03.826Z,2.12
2019-01-05T10:28:14.983Z,2.14
2019-01-05T10:31:43.569Z,2.15
2019-01-05T10:34:54.371Z,2.17
2019-01-05T10:38:22.970Z,2.20
2019-01-05T10:41:51.609Z,2.25
2019-01-05T10:45:20.177Z,2.30
2019-01-05T10:48:48.817Z,2.29
2019-01-05T10:52:17.409Z,2.38
2019-01-05T10:55:28.223Z,2.41
2019-01-05T10:58:56.816Z,2.42
2019-01-05T11:02:25.438Z,2.41
2019-01-05T11:09:45.988Z,2.41
2019-01-05T11:13:14.584Z,2.42
2019-01-05T11:16:25.437Z,2.41
2019-01-05T11:19:36.555Z,2.42
2019-01-05T11:22:47.468Z,2.46
2019-01-05T11:25:58.601Z,2.49
2019-01-05T11:29:27.222Z,2.49
2019-01-05T11:32:55.826Z,2.55
2019-01-05T11:36:24.490Z,2.59
2019-01-05T11:39:35.370Z,2.64
2019-01-05T11:43:05.403Z,2.63
2019-01-05T11:46:16.209Z,2.66
2019-01-05T11:49:27.093Z,2.71
2019-01-05T11:52:55.668Z,2.71
2019-01-05T11:56:06.792Z,2.77
2019-01-05T11:59:17.892Z,2.82
2019-01-05T12:06:41.532Z,2.88
2019-01-05T12:09:52.654Z,2.91
2019-01-05T12:13:04.054Z,2.95
2019-01-05T12:17:12.316Z,2.97
2019-01-05T12:20:23.815Z,3.02
2019-01-05T12:23:52.466Z,3.04
2019-01-05T12:27:03.512Z,3.06
2019-01-05T12:30:54.532Z,3.08
2019-01-05T12:38:04.068Z,3.11
2019-01-05T12:41:14.978Z,3.14
2019-01-05T12:44:43.557Z,3.20
2019-01-05T12:47:54.850Z,3.22
2019-01-05T12:51:05.786Z,3.27
2019-01-05T12:54:34.419Z,3.28
2019-01-05T12:57:45.298Z,3.33
2019-01-05T13:01:13.934Z,3.37
2019-01-05T13:07:39.016Z,3.41
2019-01-05T13:11:07.600Z,3.43
2019-01-05T13:14:18.453Z,3.45
2019-01-05T13:21:21.250Z,3.48
2019-01-05T13:24:32.381Z,3.49
2019-01-05T13:28:20.055Z,3.51
2019-01-05T13:31:48.663Z,3.55
2019-01-05T13:35:17.255Z,3.58
2019-01-05T13:38:45.870Z,3.59
2019-01-05T13:41:56.717Z,3.62
2019-01-05T13:45:25.394Z,3.63
2019-01-05T13:48:36.176Z,3.62
2019-01-05T13:52:04.846Z,3.62
2019-01-05T13:55:15.708Z,3.61
2019-01-05T14:04:02.395Z,3.65
2019-01-05T14:06:52.520Z,3.66
2019-01-05T14:10:01.832Z,3.67
2019-01-05T14:12:59.762Z,3.68
2019-01-05T14:16:09.055Z,3.69
2019-01-05T14:19:18.379Z,3.69
2019-01-05T14:22:08.529Z,3.70
2019-01-05T14:28:49.075Z,3.71
2019-01-05T14:31:58.354Z,3.69
2019-01-05T14:34:48.498Z,3.68
2019-01-05T14:37:38.594Z,3.68
2019-01-05T14:40:47.728Z,3.66
2019-01-05T14:47:07.839Z,3.67
2019-01-05T14:49:57.863Z,3.68
2019-01-05T14:52:48.008Z,3.68
2019-01-05T14:55:58.796Z,3.67
2019-01-05T14:58:48.905Z,3.68
2019-01-05T15:01:58.258Z,3.69
2019-01-05T15:04:48.364Z,3.70
2019-01-05T15:07:38.380Z,3.74
2019-01-05T15:14:23.121Z,3.72
2019-01-05T15:17:13.283Z,3.72
2019-01-05T15:20:03.285Z,3.74
2019-01-05T15:23:12.652Z,3.73
2019-01-05T15:26:02.721Z,3.74
2019-01-05T15:29:34.872Z,3.76
2019-01-05T15:32:44.214Z,3.77
2019-01-05T15:35:34.246Z,3.75
2019-01-05T15:42:13.505Z,3.75
2019-01-05T15:45:22.817Z,3.74
2019-01-05T15:51:23.628Z,3.72
2019-01-05T15:57:43.689Z,3.69
2019-01-05T16:00:33.769Z,3.69
2019-01-05T16:06:59.239Z,3.69
2019-01-05T16:10:08.511Z,3.68
2019-01-05T16:12:58.517Z,3.70
2019-01-05T16:15:48.692Z,3.70
2019-01-05T16:18:57.976Z,3.68
2019-01-05T16:21:47.989Z,3.69
2019-01-05T16:24:38.193Z,3.70
2019-01-05T16:30:58.124Z,3.70
2019-01-05T16:33:48.222Z,3.69
2019-01-05T16:36:38.271Z,3.68
2019-01-05T16:39:47.433Z,3.68
2019-01-05T16:42:37.462Z,3.69
2019-01-05T16:48:57.496Z,3.68
2019-01-05T16:52:06.788Z,3.70
2019-01-05T16:54:58.798Z,3.70
2019-01-05T16:57:48.809Z,3.70
2019-01-05T17:00:59.660Z,3.69
2019-01-05T17:04:09.012Z,3.71
2019-01-05T17:09:39.242Z,3.74
2019-01-05T17:12:29.722Z,3.75
2019-01-05T17:15:39.038Z,3.77
2019-01-05T17:18:29.066Z,3.77
2019-01-05T17:21:19.232Z,3.79
2019-01-05T17:27:25.303Z,3.82
2019-01-05T17:30:34.544Z,3.81
2019-01-05T17:33:39.240Z,3.82
2019-01-05T17:36:54.615Z,3.81
2019-01-05T17:40:03.894Z,3.82
2019-01-05T17:46:04.710Z,3.83
2019-01-05T17:52:24.815Z,3.83
2019-01-05T17:55:35.598Z,3.85
2019-01-05T17:58:44.914Z,3.86
2019-01-05T18:01:35.195Z,3.86
2019-01-05T18:04:25.292Z,3.87
2019-01-05T18:07:34.705Z,3.90
2019-01-05T18:10:45.585Z,3.91
2019-01-05T18:17:05.595Z,3.98
2019-01-05T18:19:55.580Z,4.02
2019-01-05T18:22:45.668Z,4.05
2019-01-05T18:29:05.754Z,4.09
2019-01-05T18:32:15.089Z,4.10
2019-01-05T18:35:05.123Z,4.13
2019-01-05T18:41:24.946Z,4.19
2019-01-05T18:51:03.637Z,4.29
2019-01-05T18:53:55.183Z,4.30
2019-01-05T18:57:24.938Z,4.31
2019-01-05T19:00:53.343Z,4.33
2019-01-05T19:03:43.471Z,4.34
2019-01-05T19:06:33.581Z,4.36
2019-01-05T19:09:44.404Z,4.37
2019-01-05T19:12:54.261Z,4.38
2019-01-05T19:15:44.349Z,4.39
2019-01-05T19:18:34.992Z,4.41
2019-01-05T19:24:42.293Z,4.41
2019-01-05T19:27:51.590Z,4.42
2019-01-05T19:30:41.779Z,4.43
2019-01-05T19:37:02.243Z,4.42
2019-01-05T19:43:02.991Z,4.42
2019-01-05T19:46:12.190Z,4.42
2019-01-05T19:49:21.506Z,4.44
2019-01-05T19:55:22.140Z,4.45
2019-01-05T19:58:12.239Z,4.45
2019-01-05T20:01:02.357Z,4.46
2019-01-05T20:03:52.458Z,4.47
2019-01-05T20:07:01.914Z,4.49
2019-01-05T20:10:11.301Z,4.49
2019-01-05T20:13:01.424Z,4.52
2019-01-05T20:16:10.692Z,4.51
2019-01-05T20:25:01.862Z,4.55
2019-01-05T20:28:12.677Z,4.55
2019-01-05T20:34:32.683Z,4.57
2019-01-05T20:37:22.809Z,4.56
2019-01-05T20:40:12.848Z,4.58
2019-01-05T20:43:03.007Z,4.57
2019-01-05T20:46:12.276Z,4.58
2019-01-05T20:49:02.421Z,4.58
2019-01-05T20:55:28.280Z,4.59
2019-01-05T21:00:58.926Z,4.59
2019-01-05T21:03:49.926Z,4.58
2019-01-05T21:06:40.056Z,4.59
2019-01-05T21:09:30.193Z,4.59
2019-01-05T21:12:20.193Z,4.59
2019-01-05T21:15:29.534Z,4.58
2019-01-05T21:18:19.637Z,4.57
2019-01-05T21:21:09.720Z,4.59
2019-01-05T21:27:10.352Z,4.60
2019-01-05T21:30:21.222Z,4.60
2019-01-05T21:33:11.233Z,4.59
2019-01-05T21:36:01.400Z,4.58
2019-01-05T21:39:10.849Z,4.58
2019-01-05T21:48:49.762Z,4.58
2019-01-05T21:51:59.220Z,4.58
2019-01-05T21:54:49.215Z,4.59
2019-01-05T21:57:39.650Z,4.58
2019-01-05T22:00:49.110Z,4.58
2019-01-05T22:03:58.446Z,4.58
2019-01-05T22:10:05.396Z,4.60
2019-01-05T22:20:00.887Z,4.58
2019-01-05T22:23:10.153Z,4.62
2019-01-05T22:26:00.204Z,4.62
2019-01-05T22:28:50.381Z,4.63
2019-01-05T22:31:40.397Z,4.61
2019-01-05T22:37:41.219Z,4.64
2019-01-05T22:40:31.311Z,4.64
2019-01-05T22:47:16.118Z,4.66
2019-01-05T22:50:06.153Z,4.68
2019-01-05T22:53:15.457Z,4.67
2019-01-05T22:56:24.790Z,4.71
2019-01-05T22:59:14.845Z,4.70
2019-01-05T23:02:04.915Z,4.72
2019-01-05T23:08:31.161Z,4.74
2019-01-05T23:11:21.260Z,4.74
2019-01-05T23:14:11.263Z,4.73
2019-01-05T23:17:01.377Z,4.73
2019-01-05T23:20:10.693Z,4.73
2019-01-05T23:23:00.743Z,4.74
2019-01-05T23:25:50.871Z,4.74
2019-01-05T23:31:40.600Z,4.75
2019-01-05T23:34:30.701Z,4.76
2019-01-05T23:37:20.669Z,4.75
2019-01-05T23:40:29.957Z,4.76
2019-01-05T23:46:30.740Z,4.78
2019-01-05T23:52:50.876Z,4.77
2019-01-05T23:56:00.141Z,4.76
2019-01-05T23:59:09.495Z,4.75
